Time;durP1;ratioP1;P1;durP2;ratioP2;P2;SDS_P1;SDS_P2;PMS_P1;PMS_P2;Temp;Humidity;BMP_temperature;BMP_pressure;BME280_temperature;BME280_humidity;BME280_pressure;Samples;Min_cycle;Max_cycle;Signal;HPM_P1;HPM_P2
2023/08/26 00:00:39;;;;;;;29.35;21.35;;;17.80;99.90;;;;;;4961638;28;87657;-37
2023/08/26 00:03:05;;;;;;;25.23;19.80;;;17.70;99.90;;;;;;4962672;28;90026;-34
2023/08/26 00:05:30;;;;;;;29.70;20.42;;;17.70;99.90;;;;;;4961988;28;89045;-32
2023/08/26 00:07:56;;;;;;;25.52;20.27;;;17.60;99.90;;;;;;4962362;28;88572;-36
2023/08/26 00:10:22;;;;;;;25.77;20.90;;;17.60;99.90;;;;;;4961753;28;89513;-32
2023/08/26 00:12:47;;;;;;;27.30;21.45;;;17.60;99.90;;;;;;4962012;28;90277;-31
2023/08/26 00:15:13;;;;;;;22.77;19.13;;;17.60;99.90;;;;;;4961657;28;89723;-34
2023/08/26 00:17:39;;;;;;;21.42;18.17;;;17.50;99.90;;;;;;4962027;28;89877;-35
2023/08/26 00:20:09;;;;;;;23.13;18.50;;;17.50;99.90;;;;;;4961774;28;88318;-38
2023/08/26 00:22:38;;;;;;;22.13;19.75;;;17.50;99.90;;;;;;4962212;28;89957;-34
2023/08/26 00:25:06;;;;;;;21.45;19.10;;;17.50;99.90;;;;;;4961126;28;88903;-38
2023/08/26 00:27:31;;;;;;;25.95;19.52;;;17.40;99.90;;;;;;4961945;28;88218;-34
2023/08/26 00:29:57;;;;;;;21.02;18.38;;;17.40;99.90;;;;;;4961320;28;87869;-34
2023/08/26 00:32:22;;;;;;;25.35;19.98;;;17.40;99.90;;;;;;4962017;28;90247;-33
2023/08/26 00:34:48;;;;;;;21.13;17.17;;;17.30;99.90;;;;;;4961467;28;91205;-32
2023/08/26 00:37:14;;;;;;;20.13;17.85;;;17.20;99.90;;;;;;4961575;28;87545;-33
2023/08/26 00:39:39;;;;;;;21.10;17.10;;;17.30;99.90;;;;;;4961838;28;87578;-32
2023/08/26 00:42:05;;;;;;;24.58;16.98;;;17.20;99.90;;;;;;4961882;28;90397;-32
2023/08/26 00:44:30;;;;;;;21.27;17.48;;;17.20;99.90;;;;;;4960985;28;89684;-34
2023/08/26 00:46:57;;;;;;;21.25;16.75;;;17.10;99.90;;;;;;4961409;28;88034;-32
2023/08/26 00:49:23;;;;;;;18.48;15.70;;;17.10;99.90;;;;;;4961135;28;87632;-33
2023/08/26 00:51:50;;;;;;;20.13;17.30;;;17.10;99.90;;;;;;4961806;28;90314;-32
2023/08/26 00:54:16;;;;;;;20.90;15.73;;;17.20;99.90;;;;;;4961128;28;89633;-37
2023/08/26 00:56:42;;;;;;;22.55;17.23;;;17.20;99.90;;;;;;4960917;28;90207;-39
2023/08/26 00:59:08;;;;;;;22.40;17.25;;;17.20;99.90;;;;;;4962112;28;88804;-34
2023/08/26 01:01:35;;;;;;;20.70;16.63;;;17.20;99.90;;;;;;4961170;28;89232;-33
2023/08/26 01:04:01;;;;;;;23.98;16.20;;;17.20;99.90;;;;;;4961252;28;89784;-32
2023/08/26 01:06:27;;;;;;;19.77;17.23;;;17.20;99.90;;;;;;4961088;28;90150;-35
2023/08/26 01:08:52;;;;;;;22.98;17.52;;;17.10;99.90;;;;;;4960074;28;89878;-38
2023/08/26 01:11:32;;;;;;;21.23;17.17;;;17.10;99.90;;;;;;4960791;28;90208;-32
2023/08/26 01:14:14;;;;;;;24.10;16.35;;;17.10;99.90;;;;;;4961540;28;90174;-33
2023/08/26 01:16:41;;;;;;;17.30;15.50;;;17.10;99.90;;;;;;4960932;28;89979;-36
2023/08/26 01:19:25;;;;;;;20.40;16.23;;;17.10;99.90;;;;;;4961157;28;89375;-38
2023/08/26 01:21:54;;;;;;;28.20;15.98;;;17.10;99.90;;;;;;4959469;28;103376;-36
2023/08/26 01:24:20;;;;;;;21.70;15.02;;;17.00;99.90;;;;;;4960854;28;89880;-36
2023/08/26 01:26:46;;;;;;;17.35;15.63;;;17.00;99.90;;;;;;4960482;28;88805;-33
2023/08/26 01:29:11;;;;;;;22.25;15.02;;;17.00;99.90;;;;;;4961055;28;89082;-34
2023/08/26 01:31:38;;;;;;;17.33;13.77;;;17.00;99.90;;;;;;4959618;28;90402;-36
2023/08/26 01:34:16;;;;;;;16.60;12.32;;;16.90;99.90;;;;;;4961048;28;89943;-35
2023/08/26 01:36:44;;;;;;;24.58;14.82;;;16.90;99.90;;;;;;4960909;28;87681;-34
2023/08/26 01:39:15;;;;;;;16.45;13.63;;;16.80;99.90;;;;;;4960308;28;87451;-35
2023/08/26 01:41:50;;;;;;;17.20;13.38;;;16.80;99.90;;;;;;4960022;28;90315;-34
2023/08/26 01:44:17;;;;;;;18.25;14.43;;;16.80;99.90;;;;;;4960096;28;90067;-33
2023/08/26 01:46:44;;;;;;;22.00;13.32;;;16.80;99.90;;;;;;4960511;28;88342;-32
2023/08/26 01:49:10;;;;;;;15.35;13.00;;;16.70;99.90;;;;;;4960742;28;87659;-33
2023/08/26 01:51:36;;;;;;;19.85;11.02;;;16.70;99.90;;;;;;4959904;28;89881;-34
2023/08/26 01:54:02;;;;;;;16.67;11.10;;;16.60;99.90;;;;;;4960592;28;88718;-34
2023/08/26 01:56:27;;;;;;;13.52;11.85;;;16.60;99.90;;;;;;4959460;28;89457;-34
2023/08/26 01:58:53;;;;;;;16.05;12.20;;;16.60;99.90;;;;;;4960339;28;88413;-36
2023/08/26 02:01:19;;;;;;;15.95;11.70;;;16.60;99.90;;;;;;4959856;28;91861;-32
2023/08/26 02:03:44;;;;;;;15.60;11.50;;;16.50;99.90;;;;;;4960456;28;90425;-34
2023/08/26 02:06:10;;;;;;;16.15;14.35;;;16.50;99.90;;;;;;4959641;28;88843;-37
2023/08/26 02:08:35;;;;;;;13.13;11.77;;;16.50;99.90;;;;;;4960359;28;87709;-37
2023/08/26 02:11:01;;;;;;;15.02;12.10;;;16.40;99.90;;;;;;4960025;28;89791;-34
2023/08/26 02:13:27;;;;;;;13.13;11.60;;;16.40;99.90;;;;;;4959549;28;90695;-35
2023/08/26 02:15:54;;;;;;;13.90;11.57;;;16.40;99.90;;;;;;4959949;28;89530;-34
2023/08/26 02:18:20;;;;;;;12.27;11.07;;;16.40;99.90;;;;;;4960200;28;90412;-34
2023/08/26 02:20:46;;;;;;;17.98;13.40;;;16.40;99.90;;;;;;4959078;28;89832;-36
2023/08/26 02:23:12;;;;;;;17.38;10.55;;;16.30;99.90;;;;;;4959884;28;89765;-33
2023/08/26 02:25:39;;;;;;;14.43;12.20;;;16.40;99.90;;;;;;4959738;28;87979;-33
2023/08/26 02:28:05;;;;;;;17.75;11.75;;;16.30;99.90;;;;;;4959456;28;88626;-36
2023/08/26 02:30:31;;;;;;;14.82;12.43;;;16.30;99.90;;;;;;4958273;28;91420;-36
2023/08/26 02:32:56;;;;;;;11.88;10.68;;;16.30;99.90;;;;;;4960348;28;89325;-34
2023/08/26 02:35:22;;;;;;;16.42;11.13;;;16.30;99.90;;;;;;4958861;28;90415;-35
2023/08/26 02:37:48;;;;;;;14.98;10.02;;;16.20;99.90;;;;;;4960276;28;88162;-34
2023/08/26 02:40:14;;;;;;;17.70;11.45;;;16.20;99.90;;;;;;4958767;28;89702;-36
2023/08/26 02:42:39;;;;;;;15.38;10.93;;;16.20;99.90;;;;;;4960400;28;89346;-32
2023/08/26 02:45:05;;;;;;;13.75;11.18;;;16.20;99.90;;;;;;4959827;28;88294;-34
2023/08/26 02:47:31;;;;;;;15.15;11.05;;;16.20;99.90;;;;;;4959278;28;89671;-38
2023/08/26 02:49:57;;;;;;;12.38;11.02;;;16.20;99.90;;;;;;4959623;28;90193;-31
2023/08/26 02:52:22;;;;;;;15.63;12.13;;;16.20;99.90;;;;;;4959140;28;89424;-32
2023/08/26 02:54:48;;;;;;;13.55;11.05;;;16.10;99.90;;;;;;4959767;28;90190;-33
2023/08/26 02:57:14;;;;;;;17.20;12.02;;;16.10;99.90;;;;;;4959096;28;89549;-34
2023/08/26 02:59:40;;;;;;;13.85;11.32;;;16.10;99.90;;;;;;4958369;28;90259;-33
2023/08/26 03:02:07;;;;;;;12.77;11.23;;;16.10;99.90;;;;;;4959788;28;89561;-34
2023/08/26 03:04:35;;;;;;;16.67;11.45;;;16.00;99.90;;;;;;4958712;28;89400;-36
2023/08/26 03:07:01;;;;;;;12.35;11.05;;;16.10;99.90;;;;;;4959013;28;87666;-32
2023/08/26 03:09:28;;;;;;;14.45;10.20;;;16.10;99.90;;;;;;4959920;28;90237;-33
2023/08/26 03:11:58;;;;;;;12.13;10.63;;;16.00;99.90;;;;;;4957663;28;89645;-35
2023/08/26 03:14:24;;;;;;;14.43;11.30;;;16.10;99.90;;;;;;4959607;28;88495;-34
2023/08/26 03:16:50;;;;;;;13.25;10.18;;;16.00;99.90;;;;;;4958794;28;87507;-37
2023/08/26 03:19:16;;;;;;;12.68;9.82;;;16.00;99.90;;;;;;4959538;28;89133;-33
2023/08/26 03:21:41;;;;;;;11.88;10.35;;;16.00;99.90;;;;;;4959976;28;89576;-35
2023/08/26 03:24:07;;;;;;;12.57;10.02;;;16.00;99.90;;;;;;4959563;28;87547;-37
2023/08/26 03:26:32;;;;;;;13.40;10.40;;;15.90;99.90;;;;;;4958783;28;89085;-32
2023/08/26 03:28:58;;;;;;;16.00;10.02;;;15.90;99.90;;;;;;4959669;28;89606;-33
2023/08/26 03:31:24;;;;;;;12.05;10.35;;;15.90;99.90;;;;;;4959285;28;89452;-33
2023/08/26 03:33:49;;;;;;;12.02;9.27;;;15.90;99.90;;;;;;4960526;28;88024;-36
2023/08/26 03:36:15;;;;;;;17.58;10.20;;;15.90;99.90;;;;;;4963676;28;89301;-33
2023/08/26 03:38:41;;;;;;;11.02;9.75;;;15.90;99.90;;;;;;4960845;28;90277;-33
2023/08/26 03:41:06;;;;;;;11.90;9.63;;;15.80;99.90;;;;;;4947860;28;89967;-36
2023/08/26 03:43:32;;;;;;;16.55;12.60;;;15.80;99.90;;;;;;4953952;28;90214;-32
2023/08/26 03:45:58;;;;;;;14.02;11.57;;;15.90;99.90;;;;;;4961752;28;88905;-34
2023/08/26 03:48:24;;;;;;;13.85;10.35;;;15.90;99.90;;;;;;4962699;28;90209;-32
2023/08/26 03:50:56;;;;;;;11.95;9.68;;;15.80;99.90;;;;;;4961238;28;89712;-32
2023/08/26 03:53:21;;;;;;;15.90;11.93;;;15.80;99.90;;;;;;4962441;28;90350;-36
2023/08/26 03:55:47;;;;;;;12.52;11.27;;;15.80;99.90;;;;;;4962855;28;88799;-35
2023/08/26 03:58:13;;;;;;;12.15;10.43;;;15.80;99.90;;;;;;4962639;28;90490;-31
2023/08/26 04:00:38;;;;;;;10.40;9.27;;;15.80;99.90;;;;;;4961802;28;90133;-31
2023/08/26 04:03:07;;;;;;;10.98;9.75;;;15.70;99.90;;;;;;4963722;28;89318;-37
2023/08/26 04:05:33;;;;;;;13.55;11.30;;;15.60;99.90;;;;;;4963020;28;88487;-33
2023/08/26 04:08:00;;;;;;;12.07;10.77;;;15.60;99.90;;;;;;4961995;28;90556;-35
2023/08/26 04:10:25;;;;;;;11.85;10.23;;;15.60;99.90;;;;;;4961469;28;89533;-33
2023/08/26 04:12:51;;;;;;;13.15;10.57;;;15.50;99.90;;;;;;4962889;28;87955;-32
2023/08/26 04:15:17;;;;;;;10.98;9.90;;;15.50;99.90;;;;;;4960231;28;89266;-31
2023/08/26 04:17:43;;;;;;;14.60;9.43;;;15.50;99.90;;;;;;4963044;28;90687;-35
2023/08/26 04:20:11;;;;;;;12.10;10.75;;;15.50;99.90;;;;;;4961568;28;90057;-35
2023/08/26 04:22:37;;;;;;;12.63;10.60;;;15.50;99.90;;;;;;4961582;28;89152;-32
2023/08/26 04:25:04;;;;;;;11.45;9.75;;;15.50;99.90;;;;;;4961836;28;90402;-33
2023/08/26 04:27:33;;;;;;;12.40;11.10;;;15.50;99.90;;;;;;4963027;28;91611;-33
2023/08/26 04:29:59;;;;;;;13.45;9.55;;;15.50;99.90;;;;;;4961365;28;89162;-33
2023/08/26 04:32:25;;;;;;;10.68;9.27;;;15.50;99.90;;;;;;4961994;28;88940;-34
2023/08/26 04:34:51;;;;;;;11.45;10.20;;;15.60;99.90;;;;;;4962738;28;89676;-37
2023/08/26 04:37:20;;;;;;;10.57;9.55;;;15.50;99.90;;;;;;4961265;28;89825;-35
2023/08/26 04:39:46;;;;;;;15.13;10.70;;;15.50;99.90;;;;;;4961082;28;89047;-34
2023/08/26 04:42:12;;;;;;;12.18;11.07;;;15.50;99.90;;;;;;4961499;28;89124;-38
2023/08/26 04:44:38;;;;;;;11.38;9.88;;;15.50;99.90;;;;;;4960893;28;88842;-36
2023/08/26 04:47:04;;;;;;;10.55;9.50;;;15.50;99.90;;;;;;4951701;28;90254;-33
2023/08/26 04:49:31;;;;;;;13.23;11.90;;;15.50;99.90;;;;;;4961639;28;89841;-34
2023/08/26 04:51:57;;;;;;;12.25;11.07;;;15.50;99.90;;;;;;4961541;28;89128;-34
2023/08/26 04:54:23;;;;;;;16.90;12.60;;;15.50;99.90;;;;;;4960712;28;88738;-35
2023/08/26 04:56:48;;;;;;;16.42;12.30;;;15.50;99.90;;;;;;4961444;28;90532;-32
2023/08/26 04:59:14;;;;;;;12.32;10.88;;;15.50;99.90;;;;;;4961354;28;89479;-34
2023/08/26 05:01:40;;;;;;;14.02;11.88;;;15.60;99.90;;;;;;4955870;28;89708;-36
2023/08/26 05:04:05;;;;;;;16.00;10.90;;;15.60;99.90;;;;;;4950037;28;88729;-34
2023/08/26 05:06:31;;;;;;;14.63;11.63;;;15.60;99.90;;;;;;4959670;28;90780;-34
2023/08/26 05:08:57;;;;;;;13.15;11.15;;;15.60;99.90;;;;;;4960911;28;91458;-32
2023/08/26 05:11:22;;;;;;;17.00;10.93;;;15.60;99.90;;;;;;4960218;28;88893;-33
2023/08/26 05:13:48;;;;;;;12.93;11.43;;;15.60;99.90;;;;;;4960866;28;87899;-35
2023/08/26 05:16:13;;;;;;;12.93;11.25;;;15.60;99.90;;;;;;4959555;28;90322;-36
2023/08/26 05:18:39;;;;;;;13.55;12.25;;;15.60;99.90;;;;;;4961253;28;89276;-35
2023/08/26 05:21:05;;;;;;;13.38;12.05;;;15.50;99.90;;;;;;4959742;28;88091;-34
2023/08/26 05:23:31;;;;;;;12.43;11.13;;;15.60;99.90;;;;;;4961161;28;87694;-33
2023/08/26 05:25:57;;;;;;;14.15;11.93;;;15.60;99.90;;;;;;4959700;28;90205;-32
2023/08/26 05:28:23;;;;;;;13.70;11.85;;;15.60;99.90;;;;;;4959873;28;90242;-35
2023/08/26 05:30:48;;;;;;;13.57;11.30;;;15.60;99.90;;;;;;4960052;28;89845;-34
2023/08/26 05:33:14;;;;;;;12.75;11.43;;;15.60;99.90;;;;;;4959800;28;87730;-34
2023/08/26 05:35:40;;;;;;;13.05;11.75;;;15.60;99.90;;;;;;4960247;28;90445;-34
2023/08/26 05:38:05;;;;;;;19.58;12.05;;;15.60;99.90;;;;;;4961042;28;89158;-35
2023/08/26 05:40:32;;;;;;;12.18;10.95;;;15.60;99.90;;;;;;4959611;28;87668;-32
2023/08/26 05:42:58;;;;;;;13.07;11.77;;;15.60;99.90;;;;;;4961279;28;88559;-33
2023/08/26 05:45:25;;;;;;;13.68;11.57;;;15.60;99.90;;;;;;4960135;28;89579;-33
2023/08/26 05:47:51;;;;;;;15.50;12.38;;;15.50;99.90;;;;;;4959932;28;89518;-33
2023/08/26 05:50:17;;;;;;;14.85;11.95;;;15.60;99.90;;;;;;4960359;28;90260;-32
2023/08/26 05:52:42;;;;;;;16.05;12.18;;;15.60;99.90;;;;;;4959881;28;88895;-33
2023/08/26 05:55:11;;;;;;;15.13;12.65;;;15.60;99.90;;;;;;4959366;28;89725;-35
2023/08/26 05:57:38;;;;;;;14.98;11.75;;;15.70;99.90;;;;;;4959423;28;89361;-33
2023/08/26 06:00:06;;;;;;;12.48;11.18;;;15.70;99.90;;;;;;4958252;28;89518;-33
2023/08/26 06:02:31;;;;;;;13.00;10.95;;;15.70;99.90;;;;;;4959654;28;89176;-32
2023/08/26 06:04:58;;;;;;;12.52;11.23;;;15.70;99.90;;;;;;4959416;28;90171;-38
2023/08/26 06:07:23;;;;;;;14.13;11.55;;;15.70;99.90;;;;;;4958099;28;89822;-33
2023/08/26 06:09:49;;;;;;;19.15;12.20;;;15.70;99.90;;;;;;4957210;28;88818;-32
2023/08/26 06:12:15;;;;;;;15.77;11.10;;;15.70;99.90;;;;;;4957640;28;89468;-34
2023/08/26 06:14:40;;;;;;;14.20;10.10;;;15.70;99.90;;;;;;4957172;28;90431;-34
2023/08/26 06:17:06;;;;;;;11.85;10.65;;;15.70;99.90;;;;;;4957374;28;89855;-36
2023/08/26 06:19:32;;;;;;;20.67;12.43;;;15.70;99.90;;;;;;4957474;28;89374;-32
2023/08/26 06:21:57;;;;;;;16.55;12.80;;;15.80;99.90;;;;;;4956894;28;89187;-38
2023/08/26 06:24:23;;;;;;;16.40;12.07;;;15.80;99.90;;;;;;4957449;28;90277;-32
2023/08/26 06:26:49;;;;;;;17.17;13.10;;;15.80;99.90;;;;;;4956926;28;89773;-33
2023/08/26 06:29:16;;;;;;;13.93;12.50;;;15.80;99.90;;;;;;4957782;28;89535;-37
2023/08/26 06:31:42;;;;;;;14.07;12.65;;;15.80;99.90;;;;;;4957178;28;90738;-34
2023/08/26 06:34:08;;;;;;;17.58;13.18;;;15.70;99.90;;;;;;4957087;28;90380;-32
2023/08/26 06:36:33;;;;;;;15.95;13.65;;;15.80;99.90;;;;;;4957698;28;89639;-33
2023/08/26 06:38:59;;;;;;;17.58;12.07;;;15.70;99.90;;;;;;4957878;28;89754;-34
2023/08/26 06:41:25;;;;;;;14.57;13.05;;;15.80;99.90;;;;;;4957535;28;89104;-38
2023/08/26 06:43:50;;;;;;;19.10;16.70;;;15.80;99.90;;;;;;4957107;28;89118;-34
2023/08/26 06:46:16;;;;;;;15.00;13.32;;;15.80;99.90;;;;;;4955870;28;89372;-37
2023/08/26 06:48:42;;;;;;;17.65;15.25;;;15.80;99.90;;;;;;4957921;28;89807;-35
2023/08/26 06:51:08;;;;;;;16.85;13.63;;;15.80;99.90;;;;;;4957016;28;88660;-35
2023/08/26 06:53:33;;;;;;;22.52;17.23;;;15.80;99.90;;;;;;4956665;28;90029;-41
2023/08/26 06:55:59;;;;;;;22.63;16.80;;;15.80;99.90;;;;;;4956860;28;89796;-35
2023/08/26 06:58:24;;;;;;;20.17;15.70;;;15.80;99.90;;;;;;4956683;28;89563;-35
2023/08/26 07:00:51;;;;;;;21.27;16.50;;;15.80;99.90;;;;;;4956264;28;88239;-35
2023/08/26 07:03:16;;;;;;;21.00;16.13;;;15.70;99.90;;;;;;4956921;28;90373;-33
2023/08/26 07:05:43;;;;;;;20.30;15.70;;;15.70;99.90;;;;;;4956165;28;89663;-36
2023/08/26 07:08:09;;;;;;;25.35;16.92;;;15.70;99.90;;;;;;4956767;28;88590;-33
2023/08/26 07:10:34;;;;;;;23.08;17.45;;;15.70;99.90;;;;;;4956213;28;89181;-34
2023/08/26 07:13:00;;;;;;;24.75;16.50;;;15.70;99.90;;;;;;4955541;28;90688;-34
2023/08/26 07:15:26;;;;;;;23.10;17.63;;;15.70;99.90;;;;;;4955507;28;90171;-35
2023/08/26 07:17:53;;;;;;;20.63;17.98;;;15.70;99.90;;;;;;4956071;28;87573;-32
2023/08/26 07:20:19;;;;;;;21.77;17.50;;;15.60;99.90;;;;;;4956135;28;88722;-33
2023/08/26 07:22:44;;;;;;;21.67;17.23;;;15.60;99.90;;;;;;4955663;28;89418;-34
2023/08/26 07:25:11;;;;;;;21.15;17.73;;;15.60;99.90;;;;;;4955679;28;89921;-38
2023/08/26 07:27:36;;;;;;;25.02;17.98;;;15.60;99.90;;;;;;4951997;28;88326;-33
2023/08/26 07:30:02;;;;;;;23.58;18.90;;;15.70;99.90;;;;;;4953236;28;90236;-35
2023/08/26 07:32:28;;;;;;;22.42;19.08;;;15.70;99.90;;;;;;4955386;28;89763;-33
2023/08/26 07:34:53;;;;;;;20.50;18.33;;;15.70;99.90;;;;;;4955747;28;89472;-38
2023/08/26 07:37:19;;;;;;;21.77;19.63;;;15.80;99.90;;;;;;4952714;28;87882;-32
2023/08/26 07:39:44;;;;;;;25.25;18.48;;;15.80;99.90;;;;;;4956567;28;89432;-33
2023/08/26 07:42:10;;;;;;;23.27;20.05;;;15.70;99.90;;;;;;4947366;28;90524;-33
2023/08/26 07:44:36;;;;;;;25.20;20.83;;;15.70;99.90;;;;;;4953919;28;89728;-34
2023/08/26 07:47:01;;;;;;;28.42;20.08;;;15.70;99.90;;;;;;4955725;28;88053;-38
2023/08/26 07:49:27;;;;;;;25.30;20.08;;;15.80;99.90;;;;;;4955077;28;89191;-37
2023/08/26 07:51:52;;;;;;;24.20;19.23;;;15.80;99.90;;;;;;4956878;28;90144;-37
2023/08/26 07:54:18;;;;;;;26.58;20.90;;;15.80;99.90;;;;;;4956497;28;89440;-34
2023/08/26 07:56:44;;;;;;;24.10;21.58;;;15.80;99.90;;;;;;4953872;28;90068;-33
2023/08/26 07:59:09;;;;;;;24.75;19.58;;;15.90;99.90;;;;;;4956088;28;89232;-33
2023/08/26 08:01:35;;;;;;;24.75;19.90;;;15.90;99.90;;;;;;4948725;28;89369;-32
2023/08/26 08:04:00;;;;;;;23.58;19.83;;;15.90;99.90;;;;;;4949098;28;89606;-38
2023/08/26 08:06:26;;;;;;;22.02;19.73;;;15.80;99.90;;;;;;4955312;28;89322;-35
2023/08/26 08:08:52;;;;;;;23.52;20.25;;;15.80;99.90;;;;;;4955173;28;89194;-39
2023/08/26 08:11:17;;;;;;;23.90;20.35;;;15.70;99.90;;;;;;4954706;28;90537;-35
2023/08/26 08:13:43;;;;;;;22.52;19.83;;;15.70;99.90;;;;;;4956211;28;89619;-32
2023/08/26 08:16:09;;;;;;;23.85;21.33;;;15.60;99.90;;;;;;4948270;28;89404;-33
2023/08/26 08:18:34;;;;;;;22.85;20.40;;;15.70;99.90;;;;;;4955243;28;89235;-33
2023/08/26 08:21:00;;;;;;;24.33;21.77;;;15.70;99.90;;;;;;4957935;28;89629;-38
2023/08/26 08:23:26;;;;;;;22.17;19.85;;;15.90;99.90;;;;;;4955709;28;90324;-35
2023/08/26 08:25:51;;;;;;;22.98;20.48;;;16.00;99.90;;;;;;4997608;22;90987;-33
2023/08/26 08:28:17;;;;;;;25.80;21.23;;;16.20;99.90;;;;;;4978797;28;88354;-36
2023/08/26 08:30:43;;;;;;;21.67;19.27;;;16.40;99.90;;;;;;4977752;28;89904;-37
2023/08/26 08:33:08;;;;;;;22.83;19.58;;;16.60;99.90;;;;;;4978305;28;89366;-35
2023/08/26 08:35:34;;;;;;;21.52;18.60;;;16.50;99.90;;;;;;4977957;28;88893;-35
2023/08/26 08:37:59;;;;;;;27.27;19.95;;;16.60;99.90;;;;;;4976811;28;88274;-34
2023/08/26 08:40:25;;;;;;;27.42;19.60;;;16.90;99.90;;;;;;4978665;28;91052;-32
2023/08/26 08:42:54;;;;;;;18.88;16.98;;;17.10;99.90;;;;;;4978083;28;89103;-33
2023/08/26 08:45:21;;;;;;;19.33;17.48;;;17.20;99.90;;;;;;4977824;28;87576;-38
2023/08/26 08:47:50;;;;;;;21.88;16.98;;;17.10;99.90;;;;;;4978690;28;88894;-33
2023/08/26 08:50:16;;;;;;;22.98;16.95;;;17.20;99.90;;;;;;4974463;28;90426;-33
2023/08/26 08:52:42;;;;;;;20.73;15.48;;;17.10;99.90;;;;;;4977517;28;89442;-34
2023/08/26 08:55:08;;;;;;;21.40;16.75;;;17.00;99.90;;;;;;4978301;28;89411;-34
2023/08/26 08:57:35;;;;;;;18.00;16.30;;;16.90;99.90;;;;;;4978732;28;90178;-33
2023/08/26 09:00:03;;;;;;;17.75;15.85;;;16.90;99.90;;;;;;4972225;28;90321;-37
2023/08/26 09:02:29;;;;;;;18.20;15.68;;;17.00;99.90;;;;;;4964175;28;90380;-38
2023/08/26 09:04:54;;;;;;;20.45;16.00;;;17.20;99.90;;;;;;4969474;28;89187;-33
2023/08/26 09:07:21;;;;;;;18.00;16.10;;;17.40;99.90;;;;;;4966713;28;87668;-37
2023/08/26 09:09:47;;;;;;;21.90;16.83;;;17.70;99.90;;;;;;4968224;28;90332;-35
2023/08/26 09:12:13;;;;;;;17.52;15.65;;;17.90;99.90;;;;;;4967240;28;89745;-33
2023/08/26 09:14:38;;;;;;;26.50;17.25;;;18.00;99.90;;;;;;4961333;28;87533;-32
2023/08/26 09:17:17;;;;;;;16.45;14.85;;;18.20;99.90;;;;;;4963904;28;87602;-36
2023/08/26 09:19:58;;;;;;;20.90;17.98;;;18.20;99.90;;;;;;4961058;28;89842;-35
2023/08/26 09:22:28;;;;;;;19.80;15.45;;;18.50;99.90;;;;;;4960853;28;90874;-33
2023/08/26 09:25:01;;;;;;;19.25;15.00;;;18.50;99.90;;;;;;4962526;28;89194;-33
2023/08/26 09:27:28;;;;;;;17.65;15.80;;;18.60;99.90;;;;;;4966461;28;89337;-32
2023/08/26 09:29:54;;;;;;;16.10;14.45;;;18.80;99.90;;;;;;4966360;28;90572;-36
2023/08/26 09:32:33;;;;;;;17.38;14.85;;;19.00;99.90;;;;;;4960292;28;89319;-33
2023/08/26 09:35:15;;;;;;;15.00;13.52;;;19.00;99.90;;;;;;4962999;28;88386;-33
2023/08/26 09:37:47;;;;;;;15.05;13.45;;;19.00;99.90;;;;;;4964383;28;88314;-35
2023/08/26 09:40:17;;;;;;;14.82;12.90;;;18.70;99.90;;;;;;4960736;28;90705;-33
2023/08/26 09:42:43;;;;;;;15.15;13.63;;;18.60;99.90;;;;;;4962037;28;90176;-33
2023/08/26 09:45:17;;;;;;;16.73;12.93;;;18.80;99.90;;;;;;4960606;28;89105;-33
2023/08/26 09:47:46;;;;;;;14.63;12.70;;;18.80;99.90;;;;;;4962545;28;90457;-33
2023/08/26 09:50:12;;;;;;;12.23;11.10;;;19.20;99.90;;;;;;4963239;28;89874;-33
2023/08/26 09:52:48;;;;;;;14.90;11.95;;;19.10;99.90;;;;;;4977385;28;89382;-35
2023/08/26 09:55:14;;;;;;;14.15;11.40;;;19.20;99.90;;;;;;4959628;28;88318;-36
2023/08/26 09:57:41;;;;;;;12.93;11.70;;;19.30;99.90;;;;;;4957688;28;88431;-34
2023/08/26 10:00:10;;;;;;;12.27;10.73;;;19.10;99.90;;;;;;4975066;28;89518;-34
2023/08/26 10:02:48;;;;;;;13.25;12.00;;;18.90;99.90;;;;;;4976391;28;90454;-32
2023/08/26 10:05:19;;;;;;;10.68;9.73;;;18.90;99.90;;;;;;4975676;28;90066;-37
2023/08/26 10:07:48;;;;;;;11.40;10.35;;;19.00;99.90;;;;;;4978850;28;88762;-37
2023/08/26 10:10:23;;;;;;;11.95;10.95;;;19.00;99.90;;;;;;4976437;28;89753;-34
2023/08/26 10:12:52;;;;;;;13.25;9.82;;;19.00;99.90;;;;;;4975911;28;89984;-36
2023/08/26 10:15:19;;;;;;;14.23;9.00;;;19.30;99.90;;;;;;4976782;28;88957;-34
2023/08/26 10:17:48;;;;;;;11.85;8.68;;;19.50;99.90;;;;;;4970004;28;89987;-37
2023/08/26 10:20:14;;;;;;;13.85;9.38;;;19.50;99.90;;;;;;4959485;28;90375;-35
2023/08/26 10:22:40;;;;;;;9.60;8.55;;;19.50;99.90;;;;;;4978418;28;88966;-32
2023/08/26 10:25:08;;;;;;;10.27;8.75;;;19.50;99.90;;;;;;4962366;28;88028;-32
2023/08/26 10:27:35;;;;;;;9.73;8.00;;;19.70;99.90;;;;;;4958175;28;88919;-36
2023/08/26 10:30:02;;;;;;;8.10;6.47;;;19.70;99.90;;;;;;4958926;28;89348;-34
2023/08/26 10:32:28;;;;;;;11.73;5.80;;;19.70;99.90;;;;;;4966626;28;89177;-34
2023/08/26 10:34:56;;;;;;;6.40;5.68;;;19.60;99.90;;;;;;4976553;28;88555;-33
2023/08/26 10:37:24;;;;;;;8.88;5.47;;;19.60;99.90;;;;;;4968649;28;89611;-37
2023/08/26 10:39:50;;;;;;;9.43;5.60;;;19.50;99.90;;;;;;4957981;28;90371;-35
2023/08/26 10:42:17;;;;;;;7.63;4.70;;;19.30;99.90;;;;;;4969437;28;91136;-33
2023/08/26 10:44:55;;;;;;;3.80;3.03;;;19.20;99.90;;;;;;4957225;28;87559;-32
2023/08/26 10:47:40;;;;;;;10.98;4.05;;;19.50;99.90;;;;;;4957826;28;88642;-33
2023/08/26 10:50:26;;;;;;;5.95;3.47;;;19.70;99.90;;;;;;4959843;28;90328;-36
2023/08/26 10:52:53;;;;;;;5.88;3.38;;;19.80;99.90;;;;;;4976197;28;89170;-35
2023/08/26 10:55:21;;;;;;;6.03;2.67;;;20.10;99.90;;;;;;4975968;28;88303;-33
2023/08/26 10:58:00;;;;;;;;;;;20.30;99.90;;;;;;4977916;28;87801;-34
2023/08/26 11:00:25;;;;;;;3.72;2.90;;;20.50;99.90;;;;;;4959411;28;91188;-38
2023/08/26 11:02:52;;;;;;;7.43;2.90;;;20.60;99.90;;;;;;4969714;28;89228;-35
2023/08/26 11:05:18;;;;;;;4.85;3.45;;;20.70;99.90;;;;;;4957326;28;90276;-32
2023/08/26 11:07:44;;;;;;;4.07;2.78;;;20.80;99.90;;;;;;4957609;28;88532;-33
2023/08/26 11:10:27;;;;;;;5.47;2.88;;;20.80;99.90;;;;;;4957276;28;89750;-37
2023/08/26 11:12:53;;;;;;;3.95;2.97;;;20.90;99.90;;;;;;4957511;28;89504;-36
2023/08/26 11:15:19;;;;;;;4.50;2.83;;;20.90;99.90;;;;;;4957326;28;90002;-35
2023/08/26 11:17:45;;;;;;;4.15;2.42;;;20.80;99.90;;;;;;4957561;28;89544;-37
2023/08/26 11:20:11;;;;;;;5.28;2.50;;;20.90;99.90;;;;;;4960220;28;88883;-37
2023/08/26 11:22:38;;;;;;;5.15;4.03;;;20.70;99.90;;;;;;4968371;28;89673;-33
2023/08/26 11:25:03;;;;;;;4.22;3.42;;;20.40;99.90;;;;;;4957661;28;88326;-36
2023/08/26 11:27:29;;;;;;;3.47;3.15;;;20.10;99.90;;;;;;4957753;28;89900;-33
2023/08/26 11:29:55;;;;;;;4.20;2.60;;;20.10;99.90;;;;;;4968816;28;89212;-34
2023/08/26 11:32:20;;;;;;;2.88;2.47;;;20.10;99.90;;;;;;4974120;28;90040;-34
2023/08/26 11:34:46;;;;;;;7.78;2.45;;;20.10;99.90;;;;;;4971596;28;88558;-36
2023/08/26 11:37:12;;;;;;;2.47;2.20;;;20.20;99.90;;;;;;4974648;28;88880;-37
2023/08/26 11:39:38;;;;;;;3.05;2.00;;;20.40;99.90;;;;;;4971645;28;90743;-36
2023/08/26 11:42:14;;;;;;;3.70;2.30;;;20.60;99.90;;;;;;4976291;28;89713;-33
2023/08/26 11:44:43;;;;;;;3.50;2.58;;;20.70;99.90;;;;;;4972158;28;87677;-34
2023/08/26 11:47:09;;;;;;;6.32;2.35;;;20.80;99.90;;;;;;4975344;28;88599;-33
2023/08/26 11:49:36;;;;;;;3.60;2.22;;;20.90;99.90;;;;;;4973878;28;90342;-34
2023/08/26 11:52:02;;;;;;;2.33;2.05;;;20.90;99.90;;;;;;4976222;28;89514;-36
2023/08/26 11:54:28;;;;;;;3.17;2.25;;;20.80;99.90;;;;;;4976818;28;88681;-36
2023/08/26 11:56:54;;;;;;;4.00;2.05;;;21.10;99.90;;;;;;4974551;28;88266;-37
2023/08/26 11:59:20;;;;;;;2.08;1.90;;;21.20;99.90;;;;;;4972177;28;90002;-33
2023/08/26 12:01:46;;;;;;;2.40;2.20;;;21.10;99.90;;;;;;4978217;28;89459;-35
2023/08/26 12:04:15;;;;;;;2.75;1.90;;;21.10;99.90;;;;;;4978814;28;88932;-32
2023/08/26 12:06:42;;;;;;;2.88;2.45;;;21.20;99.90;;;;;;4979794;28;88436;-35
2023/08/26 12:09:08;;;;;;;1.83;1.73;;;21.30;99.90;;;;;;4962804;28;90204;-39
2023/08/26 12:11:34;;;;;;;3.30;1.70;;;21.20;99.90;;;;;;4960887;28;91515;-35
2023/08/26 12:14:13;;;;;;;3.20;2.42;;;20.90;99.90;;;;;;4964456;28;89943;-37
2023/08/26 12:16:39;;;;;;;4.10;2.15;;;20.80;99.90;;;;;;4967514;28;89027;-37
2023/08/26 12:19:17;;;;;;;2.35;2.10;;;20.50;99.90;;;;;;4961996;28;90178;-34
2023/08/26 12:21:42;;;;;;;;;;;20.60;99.90;;;;;;4961563;28;88978;-36
2023/08/26 12:24:09;;;;;;;7.53;1.83;;;20.60;99.90;;;;;;4961428;28;90008;-38
2023/08/26 12:26:38;;;;;;;2.90;1.67;;;20.50;99.90;;;;;;4974521;28;88805;-36
2023/08/26 12:29:04;;;;;;;1.73;1.63;;;20.50;99.90;;;;;;4960512;28;90486;-33